createdAt,value
2022-08-22T00:03:08.735Z,2.40
2022-08-22T00:04:21.501Z,2.33
2022-08-22T00:14:49.900Z,2.57
2022-08-22T00:25:03.026Z,3.13
2022-08-22T00:35:19.460Z,4.13
2022-08-22T00:45:45.607Z,4.57
2022-08-22T00:55:59.596Z,4.23
2022-08-22T01:06:07.172Z,4.27
2022-08-22T01:16:14.561Z,3.70
2022-08-22T01:26:49.362Z,4.20
2022-08-22T01:37:12.648Z,3.95
2022-08-22T01:47:23.389Z,4.23
2022-08-22T01:57:26.572Z,4.00
2022-08-22T02:07:34.355Z,4.57
2022-08-22T02:17:48.727Z,3.63
2022-08-22T02:28:10.076Z,4.43
2022-08-22T02:38:40.798Z,4.80
2022-08-22T02:48:54.596Z,4.87
2022-08-22T02:59:12.310Z,6.03
2022-08-22T03:09:13.785Z,4.80
2022-08-22T03:19:45.879Z,5.80
2022-08-22T03:29:53.823Z,5.03
2022-08-22T03:40:19.794Z,5.93
2022-08-22T03:50:24.193Z,4.67
2022-08-22T04:01:01.185Z,5.33
2022-08-22T04:11:08.648Z,6.60
2022-08-22T04:21:29.749Z,6.43
2022-08-22T04:31:36.006Z,6.97
2022-08-22T04:41:46.582Z,7.43
2022-08-22T04:52:18.061Z,7.10
2022-08-22T05:02:24.868Z,7.07
2022-08-22T05:12:35.664Z,5.83
2022-08-22T05:22:43.368Z,5.53
2022-08-22T05:33:08.025Z,4.20
2022-08-22T05:43:12.161Z,3.67
2022-08-22T05:53:21.902Z,3.92
2022-08-22T06:03:41.745Z,4.00
2022-08-22T06:13:54.851Z,4.87
2022-08-22T06:23:59.140Z,4.87
2022-08-22T06:34:16.071Z,5.17
2022-08-22T06:44:21.923Z,6.13
2022-08-22T06:54:30.353Z,6.80
2022-08-22T07:04:34.150Z,8.53
2022-08-22T07:14:44.257Z,7.27
2022-08-22T07:24:51.115Z,8.53
2022-08-22T07:34:52.572Z,7.97
2022-08-22T07:45:14.708Z,7.63
2022-08-22T07:55:22.865Z,7.00
2022-08-22T08:05:27.562Z,6.60
2022-08-22T08:15:31.811Z,4.53
2022-08-22T08:25:48.785Z,5.63
2022-08-22T08:36:09.481Z,6.53
2022-08-22T08:46:19.905Z,9.07
2022-08-22T08:56:55.182Z,8.43
2022-08-22T09:07:16.890Z,5.80
2022-08-22T09:17:36.166Z,6.72
2022-08-22T09:27:53.413Z,6.57
2022-08-22T09:38:09.273Z,4.57
2022-08-22T09:48:30.380Z,2.70
2022-08-22T09:58:47.356Z,3.27
2022-08-22T10:09:08.835Z,2.60
2022-08-22T10:19:23.086Z,3.77
2022-08-22T10:29:40.069Z,3.10
2022-08-22T10:40:07.133Z,2.63
2022-08-22T10:50:28.984Z,4.13
2022-08-22T11:00:53.006Z,3.85
2022-08-22T11:11:20.731Z,3.80
2022-08-22T11:21:51.159Z,2.37
2022-08-22T11:31:55.528Z,1.27
2022-08-22T11:42:29.611Z,1.47
2022-08-22T11:53:08.005Z,1.45
2022-08-22T12:03:43.275Z,1.30
2022-08-22T12:13:52.171Z,2.00
2022-08-22T12:25:05.128Z,1.70
2022-08-22T12:35:32.662Z,2.20
2022-08-22T12:45:41.810Z,2.00
2022-08-22T12:56:06.216Z,1.73
2022-08-22T13:06:33.558Z,2.10
2022-08-22T13:16:49.090Z,2.70
2022-08-22T13:26:59.759Z,1.80
2022-08-22T13:37:04.204Z,1.80
2022-08-22T13:47:18.340Z,2.13
2022-08-22T13:57:27.943Z,1.30
2022-08-22T14:07:53.082Z,1.27
2022-08-22T14:18:16.821Z,1.70
2022-08-22T14:28:33.220Z,1.90
2022-08-22T14:38:47.062Z,1.43
2022-08-22T14:49:26.896Z,1.87
2022-08-22T14:59:33.628Z,2.00
2022-08-22T15:09:41.637Z,2.10
2022-08-22T15:19:47.061Z,1.65
2022-08-22T15:29:55.269Z,1.83
2022-08-22T15:39:58.900Z,1.40
2022-08-22T15:50:15.251Z,1.77
2022-08-22T16:00:29.129Z,2.03
2022-08-22T16:10:41.380Z,1.55
2022-08-22T16:20:51.657Z,1.67
2022-08-22T16:30:55.658Z,1.67
2022-08-22T16:40:57.377Z,1.60
2022-08-22T16:51:15.042Z,1.87
2022-08-22T17:01:51.983Z,1.92
2022-08-22T17:12:18.028Z,1.27
2022-08-22T17:23:02.862Z,1.40
2022-08-22T17:33:19.887Z,1.50
2022-08-22T17:43:48.480Z,2.00
2022-08-22T17:53:55.775Z,1.58
2022-08-22T18:04:01.341Z,1.90
2022-08-22T18:14:21.002Z,1.93
2022-08-22T18:24:30.144Z,2.00
2022-08-22T18:35:02.559Z,3.33
2022-08-22T18:45:04.863Z,2.47
2022-08-22T18:55:06.326Z,1.90
2022-08-22T19:05:45.143Z,2.60
2022-08-22T19:16:12.795Z,2.93
2022-08-22T19:26:29.056Z,2.73
2022-08-22T19:36:33.154Z,3.03
2022-08-22T19:46:37.996Z,2.63
2022-08-22T19:57:04.974Z,2.83
2022-08-22T20:07:43.815Z,2.03
2022-08-22T20:18:11.522Z,1.53
2022-08-22T20:28:09.623Z,1.67
2022-08-22T20:38:15.623Z,1.30
2022-08-22T20:48:17.339Z,1.70
2022-08-22T20:58:22.899Z,1.70
2022-08-22T21:08:26.515Z,1.83
2022-08-22T21:18:35.053Z,1.55
2022-08-22T21:28:41.637Z,1.30
2022-08-22T21:39:01.578Z,1.17
2022-08-22T21:49:05.379Z,1.60
2022-08-22T21:59:40.125Z,1.50
2022-08-22T22:09:54.475Z,1.77
2022-08-22T22:19:56.549Z,1.90
2022-08-22T22:29:58.226Z,1.67
2022-08-22T22:40:06.977Z,1.87
2022-08-22T22:50:09.134Z,1.40
2022-08-22T23:00:12.293Z,1.58
2022-08-22T23:10:15.236Z,2.07
2022-08-22T23:20:18.378Z,1.70
2022-08-22T23:30:20.829Z,1.40
2022-08-22T23:40:22.464Z,1.50
2022-08-22T23:50:24.042Z,1.60
